sensor_id;sensor_type;location;lat;lon;timestamp;P1;P2;P0
21358;PMS7003;13506;50.852;20.632;2022-08-25T00:02:03;15.40;12.60;7.60
21358;PMS7003;13506;50.852;20.632;2022-08-25T00:04:33;15.80;15.00;8.20
21358;PMS7003;13506;50.852;20.632;2022-08-25T00:07:03;15.60;15.20;8.20
21358;PMS7003;13506;50.852;20.632;2022-08-25T00:09:31;14.00;13.00;8.00
21358;PMS7003;13506;50.852;20.632;2022-08-25T00:12:00;12.00;10.40;7.00
21358;PMS7003;13506;50.852;20.632;2022-08-25T00:14:31;12.20;11.60;6.80
21358;PMS7003;13506;50.852;20.632;2022-08-25T00:17:01;12.80;11.20;6.40
21358;PMS7003;13506;50.852;20.632;2022-08-25T00:19:31;13.60;13.00;6.40
21358;PMS7003;13506;50.852;20.632;2022-08-25T00:22:04;15.20;13.60;8.40
21358;PMS7003;13506;50.852;20.632;2022-08-25T00:24:33;11.20;11.20;6.00
21358;PMS7003;13506;50.852;20.632;2022-08-25T00:27:01;15.40;12.40;7.40
21358;PMS7003;13506;50.852;20.632;2022-08-25T00:29:31;13.20;12.00;7.00
21358;PMS7003;13506;50.852;20.632;2022-08-25T00:32:03;16.80;12.60;5.60
21358;PMS7003;13506;50.852;20.632;2022-08-25T00:34:35;12.60;11.60;7.00
21358;PMS7003;13506;50.852;20.632;2022-08-25T00:37:06;13.20;12.80;7.00
21358;PMS7003;13506;50.852;20.632;2022-08-25T00:39:35;13.80;11.80;6.40
21358;PMS7003;13506;50.852;20.632;2022-08-25T00:42:05;14.00;11.40;6.00
21358;PMS7003;13506;50.852;20.632;2022-08-25T00:44:34;11.60;10.60;5.00
21358;PMS7003;13506;50.852;20.632;2022-08-25T00:47:03;12.40;9.80;5.20
21358;PMS7003;13506;50.852;20.632;2022-08-25T00:49:33;13.20;11.80;7.60
21358;PMS7003;13506;50.852;20.632;2022-08-25T00:52:06;13.20;10.20;5.40
21358;PMS7003;13506;50.852;20.632;2022-08-25T00:54:38;12.80;11.00;6.00
21358;PMS7003;13506;50.852;20.632;2022-08-25T00:57:11;14.00;11.40;6.40
21358;PMS7003;13506;50.852;20.632;2022-08-25T00:59:43;12.20;11.80;6.40
21358;PMS7003;13506;50.852;20.632;2022-08-25T01:02:12;12.40;10.80;5.00
21358;PMS7003;13506;50.852;20.632;2022-08-25T01:04:41;16.00;11.80;6.80
21358;PMS7003;13506;50.852;20.632;2022-08-25T01:07:12;11.60;10.40;5.80
21358;PMS7003;13506;50.852;20.632;2022-08-25T01:09:41;13.20;12.40;6.20
21358;PMS7003;13506;50.852;20.632;2022-08-25T01:12:12;12.80;11.00;6.00
21358;PMS7003;13506;50.852;20.632;2022-08-25T01:14:40;9.00;8.60;5.40
21358;PMS7003;13506;50.852;20.632;2022-08-25T01:17:10;14.00;12.60;7.00
21358;PMS7003;13506;50.852;20.632;2022-08-25T01:19:38;11.20;10.80;5.80
21358;PMS7003;13506;50.852;20.632;2022-08-25T01:22:08;13.60;11.80;7.80
21358;PMS7003;13506;50.852;20.632;2022-08-25T01:24:37;12.00;10.60;6.20
21358;PMS7003;13506;50.852;20.632;2022-08-25T01:27:12;11.20;11.00;5.80
21358;PMS7003;13506;50.852;20.632;2022-08-25T01:29:40;11.20;10.00;5.00
21358;PMS7003;13506;50.852;20.632;2022-08-25T01:32:09;11.60;11.20;7.40
21358;PMS7003;13506;50.852;20.632;2022-08-25T01:34:40;12.20;9.80;5.40
21358;PMS7003;13506;50.852;20.632;2022-08-25T01:37:13;11.20;10.20;6.80
21358;PMS7003;13506;50.852;20.632;2022-08-25T01:39:41;12.00;9.60;6.00
21358;PMS7003;13506;50.852;20.632;2022-08-25T01:42:17;13.20;11.40;6.00
21358;PMS7003;13506;50.852;20.632;2022-08-25T01:44:54;11.60;9.00;6.20
21358;PMS7003;13506;50.852;20.632;2022-08-25T01:47:22;11.20;11.20;6.80
21358;PMS7003;13506;50.852;20.632;2022-08-25T01:49:49;11.40;10.60;6.20
21358;PMS7003;13506;50.852;20.632;2022-08-25T01:52:20;14.60;12.20;7.60
21358;PMS7003;13506;50.852;20.632;2022-08-25T01:54:54;12.20;10.00;6.00
21358;PMS7003;13506;50.852;20.632;2022-08-25T01:57:22;9.80;9.40;5.00
21358;PMS7003;13506;50.852;20.632;2022-08-25T01:59:49;12.40;11.00;6.60
21358;PMS7003;13506;50.852;20.632;2022-08-25T02:02:17;12.80;10.80;6.00
21358;PMS7003;13506;50.852;20.632;2022-08-25T02:04:44;13.60;10.80;7.00
21358;PMS7003;13506;50.852;20.632;2022-08-25T02:07:13;16.40;13.00;8.00
21358;PMS7003;13506;50.852;20.632;2022-08-25T02:09:43;13.20;12.80;7.20
21358;PMS7003;13506;50.852;20.632;2022-08-25T02:12:11;12.80;10.60;5.40
21358;PMS7003;13506;50.852;20.632;2022-08-25T02:14:39;14.40;13.00;8.00
21358;PMS7003;13506;50.852;20.632;2022-08-25T02:17:07;11.20;10.00;5.60
21358;PMS7003;13506;50.852;20.632;2022-08-25T02:19:35;12.40;10.40;7.00
21358;PMS7003;13506;50.852;20.632;2022-08-25T02:22:03;14.00;12.60;7.60
21358;PMS7003;13506;50.852;20.632;2022-08-25T02:24:30;14.20;13.00;7.20
21358;PMS7003;13506;50.852;20.632;2022-08-25T02:27:00;11.00;11.00;5.40
21358;PMS7003;13506;50.852;20.632;2022-08-25T02:29:28;14.40;11.40;6.00
21358;PMS7003;13506;50.852;20.632;2022-08-25T02:31:56;12.40;11.40;7.00
21358;PMS7003;13506;50.852;20.632;2022-08-25T02:34:24;17.20;12.20;6.60
21358;PMS7003;13506;50.852;20.632;2022-08-25T02:36:52;15.40;13.00;7.20
21358;PMS7003;13506;50.852;20.632;2022-08-25T02:39:19;15.60;11.60;7.20
21358;PMS7003;13506;50.852;20.632;2022-08-25T02:41:47;17.80;12.60;7.20
21358;PMS7003;13506;50.852;20.632;2022-08-25T02:44:16;13.40;13.40;7.40
21358;PMS7003;13506;50.852;20.632;2022-08-25T02:46:43;12.40;10.60;5.80
21358;PMS7003;13506;50.852;20.632;2022-08-25T02:49:11;12.80;12.20;6.80
21358;PMS7003;13506;50.852;20.632;2022-08-25T02:51:38;15.00;11.00;5.60
21358;PMS7003;13506;50.852;20.632;2022-08-25T02:54:07;13.60;13.00;7.40
21358;PMS7003;13506;50.852;20.632;2022-08-25T02:56:35;14.80;13.40;7.00
21358;PMS7003;13506;50.852;20.632;2022-08-25T02:59:02;13.60;12.40;8.00
21358;PMS7003;13506;50.852;20.632;2022-08-25T03:01:31;14.80;12.40;6.00
21358;PMS7003;13506;50.852;20.632;2022-08-25T03:03:59;14.00;12.80;6.80
21358;PMS7003;13506;50.852;20.632;2022-08-25T03:06:28;14.00;13.40;8.20
21358;PMS7003;13506;50.852;20.632;2022-08-25T03:08:55;16.20;14.00;8.00
21358;PMS7003;13506;50.852;20.632;2022-08-25T03:11:23;14.60;13.00;7.80
21358;PMS7003;13506;50.852;20.632;2022-08-25T03:13:51;18.20;13.20;7.80
21358;PMS7003;13506;50.852;20.632;2022-08-25T03:16:19;14.60;13.40;8.40
21358;PMS7003;13506;50.852;20.632;2022-08-25T03:18:49;16.00;14.20;8.00
21358;PMS7003;13506;50.852;20.632;2022-08-25T03:21:17;16.20;16.20;8.20
21358;PMS7003;13506;50.852;20.632;2022-08-25T03:23:45;15.20;13.60;9.20
21358;PMS7003;13506;50.852;20.632;2022-08-25T03:26:13;12.80;11.80;7.00
21358;PMS7003;13506;50.852;20.632;2022-08-25T03:28:59;14.20;13.60;8.00
21358;PMS7003;13506;50.852;20.632;2022-08-25T03:31:30;14.40;14.40;8.00
21358;PMS7003;13506;50.852;20.632;2022-08-25T03:34:00;13.40;13.20;8.20
21358;PMS7003;13506;50.852;20.632;2022-08-25T03:36:28;19.40;14.60;8.80
21358;PMS7003;13506;50.852;20.632;2022-08-25T03:38:55;15.20;13.20;8.60
21358;PMS7003;13506;50.852;20.632;2022-08-25T03:41:23;13.40;13.40;9.00
21358;PMS7003;13506;50.852;20.632;2022-08-25T03:43:55;15.80;13.20;8.40
21358;PMS7003;13506;50.852;20.632;2022-08-25T03:46:24;16.00;15.00;9.00
21358;PMS7003;13506;50.852;20.632;2022-08-25T03:48:53;16.80;15.00;8.60
21358;PMS7003;13506;50.852;20.632;2022-08-25T03:51:23;17.80;16.20;9.40
21358;PMS7003;13506;50.852;20.632;2022-08-25T03:53:54;18.20;15.80;10.00
21358;PMS7003;13506;50.852;20.632;2022-08-25T03:56:23;14.80;14.20;9.00
21358;PMS7003;13506;50.852;20.632;2022-08-25T03:58:51;15.60;15.40;10.00
21358;PMS7003;13506;50.852;20.632;2022-08-25T04:01:19;17.60;16.40;9.40
21358;PMS7003;13506;50.852;20.632;2022-08-25T04:03:47;15.00;13.40;8.20
21358;PMS7003;13506;50.852;20.632;2022-08-25T04:06:15;17.40;15.20;9.00
21358;PMS7003;13506;50.852;20.632;2022-08-25T04:08:45;19.20;16.60;10.40
21358;PMS7003;13506;50.852;20.632;2022-08-25T04:11:14;14.40;13.60;8.60
21358;PMS7003;13506;50.852;20.632;2022-08-25T04:13:44;14.60;14.60;8.40
21358;PMS7003;13506;50.852;20.632;2022-08-25T04:16:12;17.20;15.00;10.00
21358;PMS7003;13506;50.852;20.632;2022-08-25T04:18:42;18.00;17.00;10.00
21358;PMS7003;13506;50.852;20.632;2022-08-25T04:21:12;16.80;15.00;9.40
21358;PMS7003;13506;50.852;20.632;2022-08-25T04:23:40;15.80;14.40;9.00
21358;PMS7003;13506;50.852;20.632;2022-08-25T04:26:12;17.40;13.80;9.40
21358;PMS7003;13506;50.852;20.632;2022-08-25T04:28:44;14.20;14.00;8.40
21358;PMS7003;13506;50.852;20.632;2022-08-25T04:31:12;16.20;16.20;9.40
21358;PMS7003;13506;50.852;20.632;2022-08-25T04:33:41;19.80;17.20;11.20
21358;PMS7003;13506;50.852;20.632;2022-08-25T04:36:11;20.20;17.80;10.00
21358;PMS7003;13506;50.852;20.632;2022-08-25T04:38:41;19.40;17.80;11.80
21358;PMS7003;13506;50.852;20.632;2022-08-25T04:41:13;18.40;14.80;10.00
21358;PMS7003;13506;50.852;20.632;2022-08-25T04:43:43;18.60;17.40;10.80
21358;PMS7003;13506;50.852;20.632;2022-08-25T04:46:11;19.60;17.40;10.00
21358;PMS7003;13506;50.852;20.632;2022-08-25T04:48:41;21.00;15.80;10.00
21358;PMS7003;13506;50.852;20.632;2022-08-25T04:51:10;26.60;21.00;13.00
21358;PMS7003;13506;50.852;20.632;2022-08-25T04:53:40;51.25;41.50;27.25
21358;PMS7003;13506;50.852;20.632;2022-08-25T04:56:09;37.50;30.50;20.75
21358;PMS7003;13506;50.852;20.632;2022-08-25T04:58:42;23.40;18.80;12.20
21358;PMS7003;13506;50.852;20.632;2022-08-25T05:01:11;18.40;17.60;10.20
21358;PMS7003;13506;50.852;20.632;2022-08-25T05:03:42;19.20;17.20;10.60
21358;PMS7003;13506;50.852;20.632;2022-08-25T05:06:11;19.00;18.40;11.40
21358;PMS7003;13506;50.852;20.632;2022-08-25T05:08:38;17.20;15.80;10.20
21358;PMS7003;13506;50.852;20.632;2022-08-25T05:11:06;22.00;19.20;11.00
21358;PMS7003;13506;50.852;20.632;2022-08-25T05:13:39;21.20;17.40;11.00
21358;PMS7003;13506;50.852;20.632;2022-08-25T05:16:06;17.60;16.20;11.00
21358;PMS7003;13506;50.852;20.632;2022-08-25T05:18:34;19.80;17.80;10.80
21358;PMS7003;13506;50.852;20.632;2022-08-25T05:21:03;19.40;18.00;11.80
21358;PMS7003;13506;50.852;20.632;2022-08-25T05:23:34;20.00;17.00;11.20
21358;PMS7003;13506;50.852;20.632;2022-08-25T05:26:03;19.40;16.40;11.00
21358;PMS7003;13506;50.852;20.632;2022-08-25T05:28:33;20.40;19.40;11.20
21358;PMS7003;13506;50.852;20.632;2022-08-25T05:31:02;22.50;19.00;11.50
21358;PMS7003;13506;50.852;20.632;2022-08-25T05:33:30;19.40;18.20;12.60
21358;PMS7003;13506;50.852;20.632;2022-08-25T05:35:58;23.60;21.60;14.40
21358;PMS7003;13506;50.852;20.632;2022-08-25T05:38:25;21.20;18.80;12.80
21358;PMS7003;13506;50.852;20.632;2022-08-25T05:40:55;16.75;16.75;11.25
21358;PMS7003;13506;50.852;20.632;2022-08-25T05:43:23;19.40;17.80;11.00
21358;PMS7003;13506;50.852;20.632;2022-08-25T05:45:52;20.00;18.20;12.60
21358;PMS7003;13506;50.852;20.632;2022-08-25T05:48:21;22.00;18.00;12.00
21358;PMS7003;13506;50.852;20.632;2022-08-25T05:50:50;17.60;17.00;11.80
21358;PMS7003;13506;50.852;20.632;2022-08-25T05:53:18;18.40;18.00;11.80
21358;PMS7003;13506;50.852;20.632;2022-08-25T05:55:45;20.00;17.00;11.00
21358;PMS7003;13506;50.852;20.632;2022-08-25T05:58:13;17.00;15.40;10.00
21358;PMS7003;13506;50.852;20.632;2022-08-25T06:00:41;16.40;16.00;10.20
21358;PMS7003;13506;50.852;20.632;2022-08-25T06:03:08;20.50;18.50;11.00
21358;PMS7003;13506;50.852;20.632;2022-08-25T06:05:37;16.80;16.40;10.80
21358;PMS7003;13506;50.852;20.632;2022-08-25T06:08:05;18.20;16.80;10.40
21358;PMS7003;13506;50.852;20.632;2022-08-25T06:10:33;18.75;15.25;10.00
21358;PMS7003;13506;50.852;20.632;2022-08-25T06:13:02;20.25;18.25;10.75
21358;PMS7003;13506;50.852;20.632;2022-08-25T06:15:30;20.40;18.00;11.00
21358;PMS7003;13506;50.852;20.632;2022-08-25T06:17:58;18.25;17.00;10.75
21358;PMS7003;13506;50.852;20.632;2022-08-25T06:20:27;19.50;18.00;11.00
21358;PMS7003;13506;50.852;20.632;2022-08-25T06:22:57;18.50;16.75;10.50
21358;PMS7003;13506;50.852;20.632;2022-08-25T06:25:25;17.50;16.75;9.50
21358;PMS7003;13506;50.852;20.632;2022-08-25T06:27:57;18.75;14.75;9.25
21358;PMS7003;13506;50.852;20.632;2022-08-25T06:30:24;18.75;18.25;12.25
21358;PMS7003;13506;50.852;20.632;2022-08-25T06:32:52;18.75;17.00;10.00
21358;PMS7003;13506;50.852;20.632;2022-08-25T06:35:20;19.00;17.75;11.25
21358;PMS7003;13506;50.852;20.632;2022-08-25T06:37:47;19.50;16.00;10.50
21358;PMS7003;13506;50.852;20.632;2022-08-25T06:40:16;19.25;17.75;11.75
21358;PMS7003;13506;50.852;20.632;2022-08-25T06:42:46;19.50;17.00;11.75
21358;PMS7003;13506;50.852;20.632;2022-08-25T06:45:14;19.50;17.00;11.25
21358;PMS7003;13506;50.852;20.632;2022-08-25T06:47:42;24.50;19.50;12.25
21358;PMS7003;13506;50.852;20.632;2022-08-25T06:50:10;19.25;18.00;10.75
21358;PMS7003;13506;50.852;20.632;2022-08-25T06:52:38;23.50;19.25;12.00
21358;PMS7003;13506;50.852;20.632;2022-08-25T06:55:06;17.75;15.25;11.00
21358;PMS7003;13506;50.852;20.632;2022-08-25T06:57:35;21.50;18.00;11.00
21358;PMS7003;13506;50.852;20.632;2022-08-25T07:00:03;19.25;17.50;11.00
21358;PMS7003;13506;50.852;20.632;2022-08-25T07:02:33;17.50;17.00;10.25
21358;PMS7003;13506;50.852;20.632;2022-08-25T07:05:03;20.25;17.50;10.00
21358;PMS7003;13506;50.852;20.632;2022-08-25T07:07:31;18.25;17.00;10.50
21358;PMS7003;13506;50.852;20.632;2022-08-25T07:09:58;20.75;19.00;11.25
21358;PMS7003;13506;50.852;20.632;2022-08-25T07:12:27;21.50;19.50;11.00
21358;PMS7003;13506;50.852;20.632;2022-08-25T07:14:56;21.75;18.75;11.00
21358;PMS7003;13506;50.852;20.632;2022-08-25T07:17:23;19.75;18.50;10.00
21358;PMS7003;13506;50.852;20.632;2022-08-25T07:19:51;23.00;17.50;11.00
21358;PMS7003;13506;50.852;20.632;2022-08-25T07:22:19;16.50;15.25;10.00
21358;PMS7003;13506;50.852;20.632;2022-08-25T07:24:47;18.00;16.00;11.00
21358;PMS7003;13506;50.852;20.632;2022-08-25T07:27:15;19.75;18.00;11.75
21358;PMS7003;13506;50.852;20.632;2022-08-25T07:29:42;17.25;15.25;10.25
21358;PMS7003;13506;50.852;20.632;2022-08-25T07:32:12;21.50;18.75;12.00
21358;PMS7003;13506;50.852;20.632;2022-08-25T07:34:39;19.25;17.00;11.00
21358;PMS7003;13506;50.852;20.632;2022-08-25T07:37:24;20.75;17.00;10.75
21358;PMS7003;13506;50.852;20.632;2022-08-25T07:39:52;19.75;16.50;10.00
21358;PMS7003;13506;50.852;20.632;2022-08-25T07:42:19;18.00;15.00;10.00
21358;PMS7003;13506;50.852;20.632;2022-08-25T07:44:47;18.75;16.00;10.25
21358;PMS7003;13506;50.852;20.632;2022-08-25T07:47:16;18.50;17.50;10.50
21358;PMS7003;13506;50.852;20.632;2022-08-25T07:49:43;18.50;15.00;9.25
21358;PMS7003;13506;50.852;20.632;2022-08-25T07:52:11;16.25;15.25;10.75
21358;PMS7003;13506;50.852;20.632;2022-08-25T07:54:39;17.25;16.00;10.00
21358;PMS7003;13506;50.852;20.632;2022-08-25T07:57:07;19.50;17.50;11.25
21358;PMS7003;13506;50.852;20.632;2022-08-25T07:59:38;19.50;17.50;11.00
21358;PMS7003;13506;50.852;20.632;2022-08-25T08:02:07;18.75;17.00;11.00
21358;PMS7003;13506;50.852;20.632;2022-08-25T08:04:37;18.50;17.25;10.00
21358;PMS7003;13506;50.852;20.632;2022-08-25T08:07:06;18.00;17.00;10.00
21358;PMS7003;13506;50.852;20.632;2022-08-25T08:09:34;19.75;16.75;10.50
21358;PMS7003;13506;50.852;20.632;2022-08-25T08:12:02;18.75;18.00;10.00
21358;PMS7003;13506;50.852;20.632;2022-08-25T08:14:31;17.00;15.00;8.75
21358;PMS7003;13506;50.852;20.632;2022-08-25T08:16:59;17.00;15.00;9.25
21358;PMS7003;13506;50.852;20.632;2022-08-25T08:19:33;17.25;15.75;10.00
21358;PMS7003;13506;50.852;20.632;2022-08-25T08:22:04;19.75;17.00;10.75
21358;PMS7003;13506;50.852;20.632;2022-08-25T08:24:32;15.00;14.00;8.75
21358;PMS7003;13506;50.852;20.632;2022-08-25T08:27:05;16.25;15.75;9.25
21358;PMS7003;13506;50.852;20.632;2022-08-25T08:29:34;14.75;14.25;8.75
21358;PMS7003;13506;50.852;20.632;2022-08-25T08:32:02;14.00;13.75;8.00
21358;PMS7003;13506;50.852;20.632;2022-08-25T08:34:31;13.00;12.75;8.25
21358;PMS7003;13506;50.852;20.632;2022-08-25T08:37:00;18.00;16.25;9.00
21358;PMS7003;13506;50.852;20.632;2022-08-25T08:39:29;13.75;13.75;8.00
21358;PMS7003;13506;50.852;20.632;2022-08-25T08:42:01;16.75;16.00;9.00
21358;PMS7003;13506;50.852;20.632;2022-08-25T08:44:46;16.25;13.00;8.00
21358;PMS7003;13506;50.852;20.632;2022-08-25T08:47:54;13.25;13.00;8.00
21358;PMS7003;13506;50.852;20.632;2022-08-25T08:50:50;17.75;14.00;9.00
21358;PMS7003;13506;50.852;20.632;2022-08-25T08:53:30;13.25;12.50;7.75
21358;PMS7003;13506;50.852;20.632;2022-08-25T08:56:09;17.50;15.25;10.25
21358;PMS7003;13506;50.852;20.632;2022-08-25T08:58:41;15.75;15.00;8.25
21358;PMS7003;13506;50.852;20.632;2022-08-25T09:01:15;13.50;12.75;8.00
21358;PMS7003;13506;50.852;20.632;2022-08-25T09:03:53;16.25;15.50;10.00
21358;PMS7003;13506;50.852;20.632;2022-08-25T09:06:29;14.50;14.50;9.00
21358;PMS7003;13506;50.852;20.632;2022-08-25T09:09:04;15.50;14.25;8.75
21358;PMS7003;13506;50.852;20.632;2022-08-25T09:11:40;15.50;14.00;7.75
21358;PMS7003;13506;50.852;20.632;2022-08-25T09:14:32;13.50;12.25;7.50
21358;PMS7003;13506;50.852;20.632;2022-08-25T09:17:13;13.50;13.25;8.75
21358;PMS7003;13506;50.852;20.632;2022-08-25T09:20:06;14.50;14.00;8.00
21358;PMS7003;13506;50.852;20.632;2022-08-25T09:22:51;13.25;12.75;7.00
21358;PMS7003;13506;50.852;20.632;2022-08-25T09:25:30;12.25;12.00;6.75
21358;PMS7003;13506;50.852;20.632;2022-08-25T09:28:12;11.25;9.75;6.00
21358;PMS7003;13506;50.852;20.632;2022-08-25T09:30:48;13.75;12.25;6.75
21358;PMS7003;13506;50.852;20.632;2022-08-25T09:33:24;11.00;10.75;6.25
21358;PMS7003;13506;50.852;20.632;2022-08-25T09:35:54;11.50;10.00;6.75
21358;PMS7003;13506;50.852;20.632;2022-08-25T09:38:23;11.50;11.00;5.25
21358;PMS7003;13506;50.852;20.632;2022-08-25T09:40:54;11.25;10.50;6.00
21358;PMS7003;13506;50.852;20.632;2022-08-25T09:43:30;31.75;25.75;16.00
21358;PMS7003;13506;50.852;20.632;2022-08-25T09:46:02;10.00;7.00;4.00
21358;PMS7003;13506;50.852;20.632;2022-08-25T09:48:43;7.00;7.00;3.50
21358;PMS7003;13506;50.852;20.632;2022-08-25T09:51:18;8.75;8.00;3.75
21358;PMS7003;13506;50.852;20.632;2022-08-25T09:53:52;9.75;9.75;5.00
21358;PMS7003;13506;50.852;20.632;2022-08-25T09:56:22;7.25;6.25;3.50
21358;PMS7003;13506;50.852;20.632;2022-08-25T09:58:55;9.00;7.00;4.75
21358;PMS7003;13506;50.852;20.632;2022-08-25T10:01:46;7.00;7.00;5.00
21358;PMS7003;13506;50.852;20.632;2022-08-25T10:04:23;7.25;7.25;4.00
21358;PMS7003;13506;50.852;20.632;2022-08-25T10:06:52;13.00;11.00;5.00
21358;PMS7003;13506;50.852;20.632;2022-08-25T10:09:22;6.75;6.25;3.75
21358;PMS7003;13506;50.852;20.632;2022-08-25T10:11:57;10.25;8.75;5.00
21358;PMS7003;13506;50.852;20.632;2022-08-25T10:14:33;7.25;7.25;4.00
21358;PMS7003;13506;50.852;20.632;2022-08-25T10:17:12;7.50;7.50;4.00
21358;PMS7003;13506;50.852;20.632;2022-08-25T10:19:49;12.00;11.00;6.75
21358;PMS7003;13506;50.852;20.632;2022-08-25T10:22:22;13.00;12.00;6.50
21358;PMS7003;13506;50.852;20.632;2022-08-25T10:24:57;12.00;9.75;6.00
21358;PMS7003;13506;50.852;20.632;2022-08-25T10:27:26;18.50;12.50;8.75
21358;PMS7003;13506;50.852;20.632;2022-08-25T10:30:07;16.00;14.00;9.00
21358;PMS7003;13506;50.852;20.632;2022-08-25T10:35:45;11.75;10.50;6.25
21358;PMS7003;13506;50.852;20.632;2022-08-25T10:38:27;13.25;10.00;6.25
21358;PMS7003;13506;50.852;20.632;2022-08-25T10:44:17;11.25;10.25;5.25
21358;PMS7003;13506;50.852;20.632;2022-08-25T10:47:20;12.50;10.25;6.00
21358;PMS7003;13506;50.852;20.632;2022-08-25T10:50:11;10.00;10.00;6.00
21358;PMS7003;13506;50.852;20.632;2022-08-25T10:52:52;12.25;11.25;6.25
21358;PMS7003;13506;50.852;20.632;2022-08-25T10:55:42;13.00;11.50;6.00
21358;PMS7003;13506;50.852;20.632;2022-08-25T10:58:27;11.00;11.00;6.00
21358;PMS7003;13506;50.852;20.632;2022-08-25T11:01:14;9.75;9.75;6.00
21358;PMS7003;13506;50.852;20.632;2022-08-25T11:03:59;11.25;10.00;6.00
21358;PMS7003;13506;50.852;20.632;2022-08-25T11:06:34;11.50;11.50;6.00
21358;PMS7003;13506;50.852;20.632;2022-08-25T11:09:09;9.25;9.00;6.00
21358;PMS7003;13506;50.852;20.632;2022-08-25T11:11:41;12.25;9.75;7.00
21358;PMS7003;13506;50.852;20.632;2022-08-25T11:14:19;12.25;10.50;6.25
21358;PMS7003;13506;50.852;20.632;2022-08-25T11:16:52;10.75;10.00;6.00
21358;PMS7003;13506;50.852;20.632;2022-08-25T11:19:29;12.75;10.75;6.50
21358;PMS7003;13506;50.852;20.632;2022-08-25T11:22:03;11.25;11.00;6.25
21358;PMS7003;13506;50.852;20.632;2022-08-25T11:24:41;12.00;9.00;5.75
21358;PMS7003;13506;50.852;20.632;2022-08-25T11:27:21;13.00;12.00;7.00
21358;PMS7003;13506;50.852;20.632;2022-08-25T11:30:05;11.75;11.00;6.00
21358;PMS7003;13506;50.852;20.632;2022-08-25T11:32:36;10.50;9.75;5.75
21358;PMS7003;13506;50.852;20.632;2022-08-25T11:35:09;11.00;9.00;6.00
21358;PMS7003;13506;50.852;20.632;2022-08-25T11:37:44;10.50;8.75;5.25
21358;PMS7003;13506;50.852;20.632;2022-08-25T11:40:36;10.25;8.00;5.00
21358;PMS7003;13506;50.852;20.632;2022-08-25T11:46:29;10.00;9.75;6.00
21358;PMS7003;13506;50.852;20.632;2022-08-25T11:49:28;11.00;10.25;6.00
21358;PMS7003;13506;50.852;20.632;2022-08-25T11:55:20;11.00;10.25;7.00
21358;PMS7003;13506;50.852;20.632;2022-08-25T12:01:07;10.00;8.75;5.25
21358;PMS7003;13506;50.852;20.632;2022-08-25T12:04:12;9.75;9.00;5.00
21358;PMS7003;13506;50.852;20.632;2022-08-25T12:10:56;12.00;9.00;6.00
21358;PMS7003;13506;50.852;20.632;2022-08-25T12:13:37;9.75;9.00;5.50
21358;PMS7003;13506;50.852;20.632;2022-08-25T12:19:24;8.50;8.50;5.00
21358;PMS7003;13506;50.852;20.632;2022-08-25T12:21:56;9.00;8.50;5.25
21358;PMS7003;13506;50.852;20.632;2022-08-25T12:25:04;8.75;7.25;5.25
21358;PMS7003;13506;50.852;20.632;2022-08-25T12:27:47;7.00;7.00;4.25
21358;PMS7003;13506;50.852;20.632;2022-08-25T12:30:30;12.50;10.00;6.00
21358;PMS7003;13506;50.852;20.632;2022-08-25T12:33:11;21.50;19.50;11.50
21358;PMS7003;13506;50.852;20.632;2022-08-25T12:35:55;10.50;7.00;5.00
21358;PMS7003;13506;50.852;20.632;2022-08-25T12:38:29;9.00;7.50;5.00
21358;PMS7003;13506;50.852;20.632;2022-08-25T12:41:01;10.00;9.00;5.00
21358;PMS7003;13506;50.852;20.632;2022-08-25T12:43:36;8.25;8.25;5.00
21358;PMS7003;13506;50.852;20.632;2022-08-25T12:49:04;7.50;7.50;5.25
21358;PMS7003;13506;50.852;20.632;2022-08-25T12:51:56;12.25;8.00;5.00
21358;PMS7003;13506;50.852;20.632;2022-08-25T12:54:36;10.50;9.00;6.00
21358;PMS7003;13506;50.852;20.632;2022-08-25T12:57:24;8.25;7.25;4.50
21358;PMS7003;13506;50.852;20.632;2022-08-25T13:00:12;10.25;9.00;5.75
21358;PMS7003;13506;50.852;20.632;2022-08-25T13:02:57;9.25;9.25;6.00
21358;PMS7003;13506;50.852;20.632;2022-08-25T13:08:51;8.25;8.25;5.00
21358;PMS7003;13506;50.852;20.632;2022-08-25T13:11:52;7.50;7.50;4.25
21358;PMS7003;13506;50.852;20.632;2022-08-25T13:14:29;13.25;11.00;7.00
21358;PMS7003;13506;50.852;20.632;2022-08-25T13:17:04;15.00;11.75;8.00
21358;PMS7003;13506;50.852;20.632;2022-08-25T13:19:33;8.50;8.25;4.75
21358;PMS7003;13506;50.852;20.632;2022-08-25T13:22:01;9.75;9.75;5.00
21358;PMS7003;13506;50.852;20.632;2022-08-25T13:24:38;8.00;7.50;5.00
21358;PMS7003;13506;50.852;20.632;2022-08-25T13:27:16;10.25;7.75;5.00
21358;PMS7003;13506;50.852;20.632;2022-08-25T13:29:50;9.50;8.50;5.25
21358;PMS7003;13506;50.852;20.632;2022-08-25T13:32:26;8.75;8.00;5.00
21358;PMS7003;13506;50.852;20.632;2022-08-25T13:35:06;10.00;10.00;6.00
21358;PMS7003;13506;50.852;20.632;2022-08-25T13:37:40;10.00;10.00;7.00
21358;PMS7003;13506;50.852;20.632;2022-08-25T13:40:09;7.75;7.75;4.50
21358;PMS7003;13506;50.852;20.632;2022-08-25T13:42:41;11.00;10.00;6.00
21358;PMS7003;13506;50.852;20.632;2022-08-25T13:45:13;10.75;10.50;6.00
21358;PMS7003;13506;50.852;20.632;2022-08-25T13:47:45;9.50;8.75;5.00
21358;PMS7003;13506;50.852;20.632;2022-08-25T13:50:16;13.00;9.75;6.50
21358;PMS7003;13506;50.852;20.632;2022-08-25T13:52:59;8.75;8.50;5.25
21358;PMS7003;13506;50.852;20.632;2022-08-25T13:55:31;9.50;8.50;4.75
21358;PMS7003;13506;50.852;20.632;2022-08-25T13:58:02;10.00;8.25;5.25
21358;PMS7003;13506;50.852;20.632;2022-08-25T14:00:33;9.50;9.25;5.75
21358;PMS7003;13506;50.852;20.632;2022-08-25T14:06:03;8.75;7.50;5.00
21358;PMS7003;13506;50.852;20.632;2022-08-25T14:08:35;8.00;8.00;5.00
21358;PMS7003;13506;50.852;20.632;2022-08-25T14:11:07;9.00;8.75;4.75
21358;PMS7003;13506;50.852;20.632;2022-08-25T14:13:38;9.00;9.00;6.00
21358;PMS7003;13506;50.852;20.632;2022-08-25T14:16:08;9.25;8.25;5.50
21358;PMS7003;13506;50.852;20.632;2022-08-25T14:18:46;10.00;7.50;5.00
21358;PMS7003;13506;50.852;20.632;2022-08-25T14:21:18;11.00;9.00;5.00
21358;PMS7003;13506;50.852;20.632;2022-08-25T14:23:51;11.50;9.00;5.00
21358;PMS7003;13506;50.852;20.632;2022-08-25T14:26:20;10.25;10.25;6.75
21358;PMS7003;13506;50.852;20.632;2022-08-25T14:28:48;9.75;9.00;6.00
21358;PMS7003;13506;50.852;20.632;2022-08-25T14:31:17;12.50;8.75;6.00
21358;PMS7003;13506;50.852;20.632;2022-08-25T14:33:54;11.75;11.75;6.00
21358;PMS7003;13506;50.852;20.632;2022-08-25T14:36:27;9.00;9.00;6.00
21358;PMS7003;13506;50.852;20.632;2022-08-25T14:38:56;10.00;9.00;5.75
21358;PMS7003;13506;50.852;20.632;2022-08-25T14:41:24;8.00;8.00;5.00
21358;PMS7003;13506;50.852;20.632;2022-08-25T14:43:52;9.25;8.25;5.50
21358;PMS7003;13506;50.852;20.632;2022-08-25T14:46:21;8.00;7.50;5.25
21358;PMS7003;13506;50.852;20.632;2022-08-25T14:48:54;10.75;10.00;6.50